createdAt,value
2023-03-04T00:02:08.772Z,65.50
2023-03-04T00:04:38.856Z,65.80
2023-03-04T00:07:05.966Z,65.70
2023-03-04T00:09:33.082Z,65.70
2023-03-04T00:12:00.254Z,65.70
2023-03-04T00:14:30.011Z,65.60
2023-03-04T00:16:57.639Z,65.50
2023-03-04T00:19:24.881Z,65.50
2023-03-04T00:21:52.039Z,65.40
2023-03-04T00:24:19.198Z,65.30
2023-03-04T00:26:46.590Z,65.40
2023-03-04T00:29:13.797Z,65.50
2023-03-04T00:31:40.992Z,65.60
2023-03-04T00:34:10.939Z,65.70
2023-03-04T00:36:38.304Z,65.70
2023-03-04T00:39:05.666Z,65.80
2023-03-04T00:41:32.854Z,65.90
2023-03-04T00:44:00.087Z,66.00
2023-03-04T00:46:27.240Z,66.00
2023-03-04T00:48:54.364Z,66.10
2023-03-04T00:51:21.542Z,66.10
2023-03-04T00:53:48.752Z,66.00
2023-03-04T00:56:15.901Z,66.00
2023-03-04T00:58:43.144Z,66.00
2023-03-04T01:01:10.772Z,66.00
2023-03-04T01:03:37.972Z,66.00
2023-03-04T01:06:05.455Z,66.30
2023-03-04T01:08:32.591Z,66.20
2023-03-04T01:10:59.728Z,66.30
2023-03-04T01:13:26.858Z,66.20
2023-03-04T01:15:54.083Z,66.30
2023-03-04T01:18:21.256Z,66.30
2023-03-04T01:20:48.404Z,66.20
2023-03-04T01:23:15.578Z,66.20
2023-03-04T01:25:42.966Z,66.40
2023-03-04T01:28:10.470Z,66.40
2023-03-04T01:30:37.689Z,66.50
2023-03-04T01:33:04.910Z,66.40
2023-03-04T01:35:32.047Z,66.30
2023-03-04T01:37:59.575Z,66.40
2023-03-04T01:40:26.715Z,66.40
2023-03-04T01:42:54.995Z,66.70
2023-03-04T01:45:24.884Z,66.60
2023-03-04T01:47:52.690Z,66.60
2023-03-04T01:50:33.364Z,66.60
2023-03-04T01:53:01.220Z,66.50
2023-03-04T01:55:28.755Z,66.50
2023-03-04T01:57:57.432Z,66.70
2023-03-04T02:00:34.311Z,66.70
2023-03-04T02:03:07.955Z,66.90
2023-03-04T02:05:36.442Z,66.70
2023-03-04T02:08:03.593Z,66.70
2023-03-04T02:10:30.765Z,66.80
2023-03-04T02:12:59.315Z,66.90
2023-03-04T02:15:27.614Z,66.90
2023-03-04T02:17:54.989Z,66.80
2023-03-04T02:20:31.002Z,66.90
2023-03-04T02:23:36.369Z,66.80
2023-03-04T02:26:20.162Z,66.80
2023-03-04T02:28:51.333Z,66.80
2023-03-04T02:31:37.765Z,67.10
2023-03-04T02:34:13.748Z,67.10
2023-03-04T02:36:41.175Z,67.20
2023-03-04T02:39:33.186Z,67.10
2023-03-04T02:42:00.843Z,67.30
2023-03-04T02:44:30.662Z,67.20
2023-03-04T02:46:58.826Z,67.20
2023-03-04T02:49:28.228Z,67.10
2023-03-04T02:52:21.195Z,67.20
2023-03-04T02:54:48.441Z,67.50
2023-03-04T02:57:17.177Z,67.30
2023-03-04T02:59:48.229Z,67.30
2023-03-04T03:02:19.515Z,67.30
2023-03-04T03:04:46.670Z,67.20
2023-03-04T03:07:16.316Z,67.20
2023-03-04T03:09:44.471Z,67.20
2023-03-04T03:12:11.700Z,67.30
2023-03-04T03:14:39.137Z,67.40
2023-03-04T03:17:08.244Z,67.40
2023-03-04T03:19:35.366Z,67.50
2023-03-04T03:22:05.867Z,67.50
2023-03-04T03:24:33.108Z,67.50
2023-03-04T03:27:00.288Z,67.60
2023-03-04T03:29:27.457Z,67.50
2023-03-04T03:31:54.652Z,67.60
2023-03-04T03:34:21.799Z,67.50
2023-03-04T03:36:49.763Z,67.40
2023-03-04T03:39:17.468Z,67.40
2023-03-04T03:41:44.578Z,67.60
2023-03-04T03:44:11.662Z,67.70
2023-03-04T03:46:38.858Z,67.60
2023-03-04T03:49:06.062Z,67.80
2023-03-04T03:51:33.248Z,68.10
2023-03-04T03:54:00.402Z,68.20
2023-03-04T03:56:27.538Z,68.30
2023-03-04T03:58:54.673Z,68.20
2023-03-04T04:01:21.822Z,68.10
2023-03-04T04:03:48.956Z,68.20
2023-03-04T04:06:16.144Z,68.10
2023-03-04T04:08:43.648Z,68.10
2023-03-04T04:11:12.059Z,68.00
2023-03-04T04:13:39.543Z,67.90
2023-03-04T04:16:07.718Z,67.80
2023-03-04T04:18:34.936Z,67.90
2023-03-04T04:21:02.089Z,67.70
2023-03-04T04:23:29.247Z,67.70
2023-03-04T04:25:56.776Z,67.60
2023-03-04T04:28:24.559Z,67.60
2023-03-04T04:30:52.016Z,67.40
2023-03-04T04:33:19.255Z,67.20
2023-03-04T04:35:46.411Z,67.30
2023-03-04T04:38:13.655Z,67.30
2023-03-04T04:40:40.817Z,67.50
2023-03-04T04:43:07.920Z,67.40
2023-03-04T04:45:35.186Z,67.50
2023-03-04T04:48:02.301Z,67.40
2023-03-04T04:50:31.852Z,67.50
2023-03-04T04:53:00.172Z,67.30
2023-03-04T04:55:28.205Z,67.30
2023-03-04T04:57:55.354Z,67.40
2023-03-04T05:00:22.502Z,67.30
2023-03-04T05:02:51.960Z,67.40
2023-03-04T05:05:19.233Z,67.40
2023-03-04T05:07:46.404Z,67.30
2023-03-04T05:10:13.566Z,67.30
2023-03-04T05:12:41.052Z,67.30
2023-03-04T05:15:08.751Z,67.40
2023-03-04T05:17:35.851Z,67.40
2023-03-04T05:20:03.583Z,67.40
2023-03-04T05:22:30.739Z,67.30
2023-03-04T05:24:57.838Z,67.40
2023-03-04T05:27:25.047Z,67.20
2023-03-04T05:29:52.272Z,67.30
2023-03-04T05:32:19.496Z,67.20
2023-03-04T05:34:46.689Z,67.10
2023-03-04T05:37:13.837Z,67.00
2023-03-04T05:39:40.986Z,67.00
2023-03-04T05:42:09.237Z,67.10
2023-03-04T05:44:36.423Z,67.10
2023-03-04T05:47:03.594Z,67.20
2023-03-04T05:49:30.727Z,67.20
2023-03-04T05:51:57.981Z,67.30
2023-03-04T05:54:25.173Z,67.20
2023-03-04T05:56:52.297Z,67.10
2023-03-04T05:59:20.870Z,67.10
2023-03-04T06:01:48.261Z,67.10
2023-03-04T06:04:15.428Z,67.10
2023-03-04T06:06:42.769Z,67.00
2023-03-04T06:09:09.859Z,67.00
2023-03-04T06:11:37.126Z,67.00
2023-03-04T06:14:04.355Z,67.00
2023-03-04T06:16:31.664Z,67.10
2023-03-04T06:18:58.826Z,66.90
2023-03-04T06:21:25.986Z,66.90
2023-03-04T06:23:53.119Z,67.00
2023-03-04T06:26:20.335Z,66.90
2023-03-04T06:28:47.460Z,66.80
2023-03-04T06:31:14.718Z,66.60
2023-03-04T06:33:41.950Z,66.40
2023-03-04T06:36:09.164Z,66.40
2023-03-04T06:38:36.287Z,66.50
2023-03-04T06:41:12.449Z,66.30
2023-03-04T06:43:39.670Z,66.30
2023-03-04T06:46:07.809Z,66.50
2023-03-04T06:48:35.029Z,66.50
2023-03-04T06:51:07.823Z,66.60
2023-03-04T06:53:35.211Z,66.60
2023-03-04T06:56:02.432Z,66.70
2023-03-04T06:58:29.580Z,66.80
2023-03-04T07:01:14.417Z,66.70
2023-03-04T07:03:41.784Z,66.90
2023-03-04T07:06:11.468Z,66.90
2023-03-04T07:08:38.935Z,66.90
2023-03-04T07:11:06.140Z,66.90
2023-03-04T07:13:35.427Z,66.80
2023-03-04T07:16:02.601Z,66.70
2023-03-04T07:18:29.714Z,66.80
2023-03-04T07:20:56.860Z,66.80
2023-03-04T07:23:24.079Z,66.80
2023-03-04T07:25:52.478Z,66.70
2023-03-04T07:28:19.766Z,66.70
2023-03-04T07:30:46.918Z,66.60
2023-03-04T07:33:14.473Z,66.50
2023-03-04T07:35:42.478Z,66.50
2023-03-04T07:38:09.761Z,66.60
2023-03-04T07:40:36.907Z,66.40
2023-03-04T07:43:04.426Z,66.50
2023-03-04T07:45:33.201Z,66.50
2023-03-04T07:48:03.720Z,66.30
2023-03-04T07:50:30.915Z,66.40
2023-03-04T07:52:58.227Z,66.50
2023-03-04T07:55:25.481Z,66.40
2023-03-04T07:57:53.006Z,66.20
2023-03-04T08:00:20.709Z,65.90
2023-03-04T08:02:47.906Z,65.90
2023-03-04T08:05:18.069Z,65.90
2023-03-04T08:07:45.301Z,65.80
2023-03-04T08:10:12.481Z,66.10
2023-03-04T08:12:39.652Z,65.90
2023-03-04T08:15:07.845Z,65.80
2023-03-04T08:17:35.571Z,65.80
2023-03-04T08:20:02.708Z,65.60
2023-03-04T08:22:29.809Z,65.50
2023-03-04T08:24:57.231Z,65.40
2023-03-04T08:27:24.401Z,65.50
2023-03-04T08:29:51.698Z,65.60
2023-03-04T08:32:19.766Z,65.50
2023-03-04T08:34:47.288Z,65.50
2023-03-04T08:37:14.407Z,65.40
2023-03-04T08:39:41.732Z,65.10
2023-03-04T08:42:09.265Z,65.10
2023-03-04T08:44:36.367Z,65.00
2023-03-04T08:47:03.489Z,64.90
2023-03-04T08:49:33.146Z,64.70
2023-03-04T08:52:01.439Z,64.70
2023-03-04T08:54:28.551Z,64.70
2023-03-04T08:56:55.784Z,64.60
2023-03-04T08:59:23.000Z,64.30
2023-03-04T09:02:07.548Z,64.40
2023-03-04T09:04:34.838Z,64.50
2023-03-04T09:07:01.991Z,64.70
2023-03-04T09:09:29.203Z,64.60
2023-03-04T09:11:56.307Z,64.50
2023-03-04T09:14:26.211Z,64.60
2023-03-04T09:16:53.367Z,64.60
2023-03-04T09:19:20.474Z,64.40
2023-03-04T09:21:48.755Z,64.30
2023-03-04T09:24:16.530Z,64.20
2023-03-04T09:26:43.782Z,64.20
2023-03-04T09:29:10.961Z,64.10
2023-03-04T09:31:38.221Z,64.40
2023-03-04T09:34:05.447Z,64.20
2023-03-04T09:36:35.506Z,64.20
2023-03-04T09:39:06.314Z,64.30
2023-03-04T09:41:44.421Z,64.30
2023-03-04T09:44:40.596Z,64.40
2023-03-04T09:47:16.104Z,64.20
2023-03-04T09:49:57.546Z,64.00
2023-03-04T09:53:04.327Z,63.90
2023-03-04T09:55:44.024Z,64.00
2023-03-04T09:58:47.006Z,64.20
2023-03-04T10:01:57.009Z,64.30
2023-03-04T10:04:44.866Z,64.20
2023-03-04T10:07:28.918Z,64.20
2023-03-04T10:10:17.587Z,64.10
2023-03-04T10:12:46.442Z,63.70
2023-03-04T10:15:40.179Z,63.90
2023-03-04T10:18:27.457Z,63.70
2023-03-04T10:20:58.280Z,64.00
2023-03-04T10:23:26.553Z,63.90
2023-03-04T10:25:54.502Z,64.00
2023-03-04T10:28:25.527Z,63.80
2023-03-04T10:30:58.557Z,63.30
2023-03-04T10:33:30.558Z,62.90
2023-03-04T10:36:29.304Z,62.60
2023-03-04T10:39:06.710Z,62.20
2023-03-04T10:41:34.016Z,62.30
2023-03-04T10:44:15.726Z,62.10
2023-03-04T10:46:45.691Z,61.50
2023-03-04T10:49:17.531Z,61.40
2023-03-04T10:51:48.067Z,61.40
2023-03-04T10:54:41.816Z,61.00
2023-03-04T10:57:42.220Z,60.60
2023-03-04T11:00:21.721Z,60.10
2023-03-04T11:02:49.314Z,59.60
2023-03-04T11:05:24.358Z,59.60
2023-03-04T11:07:59.227Z,59.40
2023-03-04T11:10:31.728Z,59.60
2023-03-04T11:12:58.778Z,59.50
2023-03-04T11:15:28.440Z,59.50
2023-03-04T11:18:34.593Z,59.10
2023-03-04T11:21:01.750Z,58.50
2023-03-04T11:23:52.100Z,58.80
2023-03-04T11:26:25.055Z,58.90
2023-03-04T11:29:12.053Z,58.80
2023-03-04T11:32:01.469Z,58.50
2023-03-04T11:34:37.971Z,58.30
2023-03-04T11:37:51.723Z,58.30
2023-03-04T11:40:33.886Z,58.70
2023-03-04T11:43:17.957Z,58.40
2023-03-04T11:46:18.413Z,58.40
2023-03-04T11:48:51.157Z,58.00
2023-03-04T11:51:52.362Z,58.40
2023-03-04T11:54:41.088Z,57.80
2023-03-04T11:57:34.164Z,57.90
2023-03-04T12:00:37.854Z,57.40
2023-03-04T12:03:42.398Z,57.20
2023-03-04T12:06:21.098Z,57.00
2023-03-04T12:09:16.139Z,57.10
2023-03-04T12:11:49.003Z,56.80
2023-03-04T12:14:50.461Z,57.10
2023-03-04T12:18:05.961Z,57.00
2023-03-04T12:20:47.467Z,56.70
2023-03-04T12:23:40.645Z,56.70
2023-03-04T12:26:30.194Z,56.10
2023-03-04T12:29:38.590Z,56.20
2023-03-04T12:32:17.580Z,56.10
2023-03-04T12:35:14.538Z,56.10
2023-03-04T12:38:21.057Z,55.80
2023-03-04T12:41:04.305Z,55.80
2023-03-04T12:43:49.679Z,55.70
2023-03-04T12:47:22.953Z,55.50
2023-03-04T12:49:58.781Z,55.40
2023-03-04T12:52:40.906Z,55.40
2023-03-04T12:55:14.628Z,55.50
2023-03-04T12:57:51.778Z,55.20
2023-03-04T13:01:00.796Z,55.30
2023-03-04T13:03:44.476Z,54.50
2023-03-04T13:06:41.326Z,54.40
2023-03-04T13:09:29.229Z,54.30
2023-03-04T13:12:22.660Z,54.40
2023-03-04T13:15:09.372Z,54.30
2023-03-04T13:18:02.342Z,54.10
2023-03-04T13:20:38.771Z,54.00
2023-03-04T13:23:35.776Z,54.30
2023-03-04T13:26:02.777Z,54.30
2023-03-04T13:28:37.799Z,54.40
2023-03-04T13:31:09.685Z,54.00
2023-03-04T13:33:36.793Z,54.30
2023-03-04T13:36:07.863Z,54.60
2023-03-04T13:38:37.956Z,54.50
2023-03-04T13:41:34.116Z,54.00
2023-03-04T13:44:03.312Z,54.10
2023-03-04T13:46:40.832Z,54.10
2023-03-04T13:49:26.611Z,54.30
2023-03-04T13:51:53.766Z,54.60
2023-03-04T13:54:30.068Z,54.90
2023-03-04T13:57:19.756Z,54.90
2023-03-04T13:59:54.640Z,55.10
2023-03-04T14:02:25.508Z,55.50
2023-03-04T14:05:03.051Z,55.40
2023-03-04T14:07:35.641Z,55.30
2023-03-04T14:10:08.332Z,55.10
2023-03-04T14:12:46.962Z,55.00
2023-03-04T14:15:57.084Z,55.30
2023-03-04T14:18:28.224Z,55.70
2023-03-04T14:20:59.007Z,55.90
2023-03-04T14:23:33.801Z,55.90
2023-03-04T14:26:05.751Z,56.10
2023-03-04T14:28:35.297Z,56.20
2023-03-04T14:31:02.412Z,56.20
2023-03-04T14:33:32.534Z,56.10
2023-03-04T14:36:04.968Z,56.10
2023-03-04T14:38:43.446Z,56.20
2023-03-04T14:41:19.020Z,56.30
2023-03-04T14:44:11.465Z,56.30
2023-03-04T14:46:42.817Z,56.50
2023-03-04T14:49:14.066Z,56.60
2023-03-04T14:51:48.167Z,56.50
2023-03-04T14:54:33.210Z,56.70
2023-03-04T14:57:05.251Z,56.80
2023-03-04T14:59:36.984Z,56.90
2023-03-04T15:02:33.365Z,56.90
2023-03-04T15:05:16.876Z,57.20
2023-03-04T15:08:01.570Z,57.10
2023-03-04T15:10:31.932Z,57.00
2023-03-04T15:13:05.486Z,57.20
2023-03-04T15:15:48.558Z,57.20
2023-03-04T15:18:55.114Z,57.30
2023-03-04T15:21:23.570Z,57.20
2023-03-04T15:23:52.788Z,57.20
2023-03-04T15:26:19.910Z,57.30
2023-03-04T15:28:46.994Z,57.30
2023-03-04T15:31:19.659Z,57.40
2023-03-04T15:33:49.232Z,57.30
2023-03-04T15:36:23.944Z,57.50
2023-03-04T15:38:52.851Z,57.60
2023-03-04T15:41:26.674Z,57.60
2023-03-04T15:43:55.836Z,57.80
2023-03-04T15:46:23.149Z,57.90
2023-03-04T15:48:50.368Z,58.00
2023-03-04T15:51:22.261Z,58.00
2023-03-04T15:53:58.780Z,57.90
2023-03-04T15:56:31.193Z,58.00
2023-03-04T15:59:12.765Z,57.80
2023-03-04T16:01:40.049Z,57.70
2023-03-04T16:04:11.397Z,57.50
2023-03-04T16:06:38.693Z,57.50
2023-03-04T16:09:09.224Z,57.50
2023-03-04T16:11:40.026Z,57.70
2023-03-04T16:14:08.354Z,57.90
2023-03-04T16:16:35.526Z,57.70
2023-03-04T16:19:02.669Z,57.60
2023-03-04T16:21:29.795Z,57.60
2023-03-04T16:23:56.902Z,57.70
2023-03-04T16:26:24.994Z,57.70
2023-03-04T16:28:52.728Z,57.80
2023-03-04T16:31:20.184Z,57.80
2023-03-04T16:33:47.481Z,57.70
2023-03-04T16:36:25.790Z,57.60
2023-03-04T16:38:55.240Z,57.60
2023-03-04T16:41:26.141Z,57.60
2023-03-04T16:43:55.787Z,57.80
2023-03-04T16:46:23.099Z,57.80
2023-03-04T16:48:50.219Z,57.80
2023-03-04T16:51:19.808Z,57.70
2023-03-04T16:53:58.016Z,57.90
2023-03-04T16:56:25.225Z,57.90
2023-03-04T16:58:54.215Z,57.90
2023-03-04T17:01:25.754Z,57.80
2023-03-04T17:03:53.560Z,57.90
2023-03-04T17:06:21.031Z,57.90
2023-03-04T17:08:48.313Z,57.90
2023-03-04T17:11:23.214Z,58.00
2023-03-04T17:13:53.089Z,58.10
2023-03-04T17:16:20.400Z,58.10
2023-03-04T17:18:47.555Z,58.30
2023-03-04T17:21:17.873Z,58.30
2023-03-04T17:23:44.990Z,58.20
2023-03-04T17:26:12.572Z,58.20
2023-03-04T17:28:39.758Z,58.20
2023-03-04T17:31:15.363Z,58.10
2023-03-04T17:33:43.817Z,58.20
2023-03-04T17:36:12.274Z,58.20
2023-03-04T17:38:39.556Z,58.20
2023-03-04T17:41:10.225Z,58.50
2023-03-04T17:43:37.375Z,58.40
2023-03-04T17:46:09.197Z,58.30
2023-03-04T17:48:36.488Z,58.10
2023-03-04T17:51:03.776Z,58.10
2023-03-04T17:53:31.428Z,58.20
2023-03-04T17:56:00.997Z,58.10
2023-03-04T17:58:29.287Z,58.30
2023-03-04T18:01:02.656Z,58.30
2023-03-04T18:03:30.064Z,58.40
2023-03-04T18:05:57.212Z,58.40
2023-03-04T18:08:24.417Z,58.50
2023-03-04T18:10:51.703Z,58.40
2023-03-04T18:13:18.815Z,58.40
2023-03-04T18:15:46.348Z,58.30
2023-03-04T18:18:16.871Z,58.30
2023-03-04T18:20:44.021Z,58.40
2023-03-04T18:23:11.125Z,58.50
2023-03-04T18:25:38.870Z,58.40
2023-03-04T18:28:15.627Z,58.40
2023-03-04T18:30:46.703Z,58.40
2023-03-04T18:33:17.481Z,58.50
2023-03-04T18:35:44.676Z,58.40
2023-03-04T18:38:11.995Z,58.40
2023-03-04T18:41:07.410Z,58.40
2023-03-04T18:43:35.102Z,58.40
2023-03-04T18:46:18.529Z,58.30
2023-03-04T18:48:50.682Z,58.40
2023-03-04T18:51:17.811Z,58.40
2023-03-04T18:53:53.649Z,58.40
2023-03-04T18:56:43.514Z,58.30
2023-03-04T18:59:46.584Z,58.50
2023-03-04T19:02:45.302Z,58.40
2023-03-04T19:05:19.914Z,58.60
2023-03-04T19:07:47.157Z,58.70
2023-03-04T19:10:15.509Z,58.60
2023-03-04T19:12:42.835Z,58.50
2023-03-04T19:15:15.705Z,58.50
2023-03-04T19:17:45.360Z,58.50
2023-03-04T19:20:13.548Z,58.60
2023-03-04T19:22:40.730Z,58.50
2023-03-04T19:25:08.639Z,58.50
2023-03-04T19:27:36.626Z,58.50
2023-03-04T19:30:05.318Z,58.50
2023-03-04T19:32:33.668Z,58.60
2023-03-04T19:35:00.821Z,58.80
2023-03-04T19:37:27.997Z,59.00
2023-03-04T19:39:56.053Z,58.80
2023-03-04T19:42:24.044Z,58.80
2023-03-04T19:44:51.217Z,58.80
2023-03-04T19:47:18.366Z,58.80
2023-03-04T19:49:45.704Z,58.90
2023-03-04T19:52:12.805Z,58.90
2023-03-04T19:54:41.230Z,59.10
2023-03-04T19:57:13.523Z,59.30
2023-03-04T19:59:40.629Z,59.20
2023-03-04T20:02:07.866Z,59.20
2023-03-04T20:04:35.434Z,59.10
2023-03-04T20:07:02.711Z,59.10
2023-03-04T20:09:38.576Z,59.10
2023-03-04T20:12:05.877Z,59.20
2023-03-04T20:14:34.049Z,59.20
2023-03-04T20:17:02.734Z,59.40
2023-03-04T20:19:33.497Z,59.40
2023-03-04T20:22:01.153Z,59.40
2023-03-04T20:24:28.296Z,59.40
2023-03-04T20:26:55.709Z,59.50
2023-03-04T20:29:23.155Z,59.40
2023-03-04T20:31:50.801Z,59.40
2023-03-04T20:34:25.599Z,59.30
2023-03-04T20:36:52.854Z,59.50
2023-03-04T20:39:28.610Z,59.50
2023-03-04T20:42:00.213Z,59.40
2023-03-04T20:44:27.614Z,59.40
2023-03-04T20:46:54.796Z,59.40
2023-03-04T20:49:24.663Z,59.40
2023-03-04T20:52:08.032Z,59.40
2023-03-04T20:54:38.662Z,59.50
2023-03-04T20:57:09.645Z,59.50
2023-03-04T20:59:38.384Z,59.50
2023-03-04T21:02:07.393Z,59.60
2023-03-04T21:04:34.642Z,59.60
2023-03-04T21:07:02.206Z,59.60
2023-03-04T21:09:29.752Z,59.70
2023-03-04T21:11:57.593Z,59.60
2023-03-04T21:14:32.398Z,59.70
2023-03-04T21:17:02.407Z,59.70
2023-03-04T21:19:36.177Z,59.60
2023-03-04T21:22:03.545Z,59.70
2023-03-04T21:24:35.324Z,59.80
2023-03-04T21:27:04.252Z,60.10
2023-03-04T21:29:31.439Z,60.00
2023-03-04T21:32:25.040Z,60.00
2023-03-04T21:34:53.569Z,60.20
2023-03-04T21:37:21.662Z,60.10
2023-03-04T21:39:48.810Z,60.20
2023-03-04T21:42:16.023Z,60.20
2023-03-04T21:44:51.677Z,60.20
2023-03-04T21:47:22.628Z,60.20
2023-03-04T21:49:50.328Z,60.20
2023-03-04T21:52:18.951Z,60.10
2023-03-04T21:54:46.069Z,60.20
2023-03-04T21:57:14.257Z,60.20
2023-03-04T21:59:41.394Z,60.30
2023-03-04T22:02:16.803Z,60.30
2023-03-04T22:04:46.714Z,60.60
2023-03-04T22:07:16.853Z,60.60
2023-03-04T22:09:49.819Z,60.60
2023-03-04T22:12:19.446Z,60.60
2023-03-04T22:14:47.024Z,60.60
2023-03-04T22:17:14.318Z,60.60
2023-03-04T22:19:41.584Z,60.60
2023-03-04T22:22:08.760Z,60.70
2023-03-04T22:24:39.340Z,60.70
2023-03-04T22:27:06.490Z,60.70
2023-03-04T22:29:33.624Z,60.80
2023-03-04T22:32:00.838Z,60.80
2023-03-04T22:34:30.356Z,61.00
2023-03-04T22:36:57.578Z,61.00
2023-03-04T22:39:24.709Z,60.90
2023-03-04T22:41:51.880Z,61.00
2023-03-04T22:44:19.109Z,60.90
2023-03-04T22:46:46.322Z,60.90
2023-03-04T22:49:13.870Z,60.90
2023-03-04T22:51:47.382Z,60.90
2023-03-04T22:54:16.707Z,61.00
2023-03-04T22:56:44.239Z,61.20
2023-03-04T22:59:11.425Z,61.20
2023-03-04T23:01:38.592Z,61.20
2023-03-04T23:04:05.899Z,61.10
2023-03-04T23:06:33.097Z,61.10
2023-03-04T23:09:00.293Z,61.00
2023-03-04T23:11:32.875Z,61.10
2023-03-04T23:14:02.237Z,61.10
2023-03-04T23:16:29.492Z,61.30
2023-03-04T23:18:59.126Z,61.40
2023-03-04T23:21:28.260Z,61.20
2023-03-04T23:23:55.589Z,61.30
2023-03-04T23:26:27.769Z,61.30
2023-03-04T23:28:56.949Z,61.50
2023-03-04T23:31:25.609Z,61.40
2023-03-04T23:33:57.218Z,61.50
2023-03-04T23:36:33.686Z,61.50
2023-03-04T23:39:01.075Z,61.40
2023-03-04T23:41:29.816Z,61.40
2023-03-04T23:43:57.959Z,61.50
2023-03-04T23:46:25.558Z,61.70
2023-03-04T23:48:52.818Z,61.60
2023-03-04T23:51:23.551Z,61.70
2023-03-04T23:53:50.830Z,61.70
2023-03-04T23:56:23.987Z,61.80
2023-03-04T23:58:53.942Z,61.90
